createdAt,value
2022-09-15T00:01:43.289Z,2.00
2022-09-15T00:04:24.264Z,2.55
2022-09-15T00:07:04.180Z,2.28
2022-09-15T00:09:52.180Z,2.58
2022-09-15T00:12:27.223Z,2.42
2022-09-15T00:15:15.195Z,2.45
2022-09-15T00:17:57.363Z,1.98
2022-09-15T00:20:38.203Z,6.18
2022-09-15T00:23:20.257Z,7.50
2022-09-15T00:26:01.204Z,2.88
2022-09-15T00:28:41.308Z,2.63
2022-09-15T00:31:23.310Z,2.05
2022-09-15T00:34:06.271Z,2.35
2022-09-15T00:36:47.237Z,2.00
2022-09-15T00:39:28.211Z,1.83
2022-09-15T00:42:09.206Z,2.60
2022-09-15T00:45:06.201Z,2.35
2022-09-15T00:47:54.205Z,1.80
2022-09-15T00:50:35.232Z,1.90
2022-09-15T00:53:30.191Z,2.10
2022-09-15T00:56:19.217Z,2.05
2022-09-15T00:59:08.292Z,1.90
2022-09-15T01:01:50.246Z,2.40
2022-09-15T01:04:38.203Z,1.88
2022-09-15T01:07:20.197Z,1.65
2022-09-15T01:10:03.956Z,2.50
2022-09-15T01:12:45.223Z,1.88
2022-09-15T01:15:33.237Z,2.95
2022-09-15T01:18:07.151Z,2.20
2022-09-15T01:20:55.199Z,2.20
2022-09-15T01:23:35.222Z,2.70
2022-09-15T01:26:25.370Z,2.38
2022-09-15T01:29:29.215Z,2.92
2022-09-15T01:32:28.895Z,1.50
2022-09-15T01:35:09.234Z,1.77
2022-09-15T01:38:19.221Z,1.88
2022-09-15T01:41:11.714Z,2.40
2022-09-15T01:44:03.227Z,1.88
2022-09-15T01:46:41.394Z,2.17
2022-09-15T01:49:31.225Z,2.85
2022-09-15T01:52:05.986Z,2.15
2022-09-15T01:54:56.228Z,2.30
2022-09-15T01:57:37.206Z,2.10
2022-09-15T02:00:18.275Z,2.13
2022-09-15T02:03:02.218Z,2.88
2022-09-15T02:05:48.639Z,2.38
2022-09-15T02:08:41.256Z,2.22
2022-09-15T02:11:35.222Z,2.70
2022-09-15T02:14:28.250Z,1.98
2022-09-15T02:17:09.271Z,1.92
2022-09-15T02:19:53.207Z,2.50
2022-09-15T02:22:36.290Z,2.58
2022-09-15T02:25:22.238Z,1.75
2022-09-15T02:28:06.013Z,2.65
2022-09-15T02:30:48.963Z,2.17
2022-09-15T02:33:33.015Z,2.38
2022-09-15T02:36:13.968Z,1.73
2022-09-15T02:38:58.114Z,2.28
2022-09-15T02:41:38.960Z,2.80
2022-09-15T02:44:20.023Z,2.35
2022-09-15T02:46:59.968Z,2.05
2022-09-15T02:49:41.006Z,1.95
2022-09-15T02:52:21.949Z,2.50
2022-09-15T02:55:03.008Z,3.10
2022-09-15T02:57:42.958Z,3.35
2022-09-15T03:00:24.057Z,2.70
2022-09-15T03:03:04.947Z,2.03
2022-09-15T03:05:46.044Z,4.05
2022-09-15T03:08:25.974Z,2.67
2022-09-15T03:11:13.955Z,2.50
2022-09-15T03:13:54.963Z,1.98
2022-09-15T03:16:37.137Z,2.42
2022-09-15T03:19:16.960Z,2.22
2022-09-15T03:21:57.994Z,2.22
2022-09-15T03:24:38.957Z,2.60
2022-09-15T03:27:20.026Z,2.03
2022-09-15T03:30:00.967Z,1.77
2022-09-15T03:32:42.010Z,1.92
2022-09-15T03:35:21.975Z,2.55
2022-09-15T03:38:03.266Z,1.90
2022-09-15T03:40:43.987Z,1.88
2022-09-15T03:43:31.968Z,2.05
2022-09-15T03:46:13.049Z,2.58
2022-09-15T03:48:54.021Z,2.05
2022-09-15T03:51:33.967Z,2.35
2022-09-15T03:54:21.987Z,2.20
2022-09-15T03:56:55.905Z,3.00
2022-09-15T03:59:43.984Z,2.70
2022-09-15T04:02:24.065Z,2.72
2022-09-15T04:05:05.033Z,3.13
2022-09-15T04:07:45.968Z,2.45
2022-09-15T04:10:27.011Z,1.50
2022-09-15T04:13:06.979Z,2.38
2022-09-15T04:15:48.439Z,2.20
2022-09-15T04:18:27.992Z,2.58
2022-09-15T04:21:10.033Z,1.90
2022-09-15T04:23:51.155Z,1.90
2022-09-15T04:26:42.977Z,1.92
2022-09-15T04:29:23.977Z,2.35
2022-09-15T04:32:05.029Z,1.90
2022-09-15T04:34:44.968Z,2.20
2022-09-15T04:37:32.977Z,2.03
2022-09-15T04:40:20.991Z,2.47
2022-09-15T04:42:55.024Z,2.10
2022-09-15T04:45:41.985Z,1.98
2022-09-15T04:48:16.043Z,2.00
2022-09-15T04:51:08.015Z,1.55
2022-09-15T04:53:42.195Z,1.58
2022-09-15T04:56:32.000Z,2.53
2022-09-15T04:59:07.034Z,2.67
2022-09-15T05:01:54.060Z,3.45
2022-09-15T05:04:28.064Z,2.85
2022-09-15T05:07:14.979Z,1.70
2022-09-15T05:09:55.984Z,2.10
2022-09-15T05:12:49.960Z,2.33
2022-09-15T05:15:36.962Z,1.90
2022-09-15T05:18:11.053Z,2.05
2022-09-15T05:21:04.961Z,2.53
2022-09-15T05:23:39.099Z,2.08
2022-09-15T05:26:27.961Z,1.92
2022-09-15T05:29:03.082Z,3.22
2022-09-15T05:31:50.019Z,2.00
2022-09-15T05:34:30.961Z,1.50
2022-09-15T05:37:12.081Z,1.48
2022-09-15T05:40:00.085Z,1.70
2022-09-15T05:42:35.484Z,2.15
2022-09-15T05:45:22.990Z,1.70
2022-09-15T05:48:02.957Z,2.03
2022-09-15T05:50:50.966Z,2.35
2022-09-15T05:53:31.957Z,1.80
2022-09-15T05:56:20.996Z,1.80
2022-09-15T05:58:54.941Z,2.30
2022-09-15T06:01:43.050Z,2.25
2022-09-15T06:04:17.942Z,2.38
2022-09-15T06:07:05.961Z,2.15
2022-09-15T06:09:40.005Z,3.35
2022-09-15T06:12:27.965Z,1.48
2022-09-15T06:15:15.990Z,1.92
2022-09-15T06:17:50.041Z,1.95
2022-09-15T06:20:36.967Z,1.85
2022-09-15T06:23:11.043Z,1.98
2022-09-15T06:25:57.973Z,0.98
2022-09-15T06:28:32.035Z,2.50
2022-09-15T06:31:20.046Z,1.63
2022-09-15T06:33:56.128Z,1.75
2022-09-15T06:36:44.976Z,2.03
2022-09-15T06:39:19.250Z,1.40
2022-09-15T06:42:06.028Z,1.63
2022-09-15T06:44:53.980Z,1.27
2022-09-15T06:47:33.819Z,2.30
2022-09-15T06:50:22.015Z,1.63
2022-09-15T06:52:55.892Z,2.40
2022-09-15T06:55:43.980Z,1.35
2022-09-15T06:58:17.940Z,1.65
2022-09-15T07:01:06.010Z,1.15
2022-09-15T07:03:40.941Z,1.88
2022-09-15T07:06:28.976Z,1.48
2022-09-15T07:09:03.005Z,1.95
2022-09-15T07:11:50.977Z,1.30
2022-09-15T07:14:24.982Z,1.40
2022-09-15T07:17:13.068Z,1.42
2022-09-15T07:19:46.922Z,1.67
2022-09-15T07:22:35.000Z,1.90
2022-09-15T07:25:15.997Z,1.75
2022-09-15T07:27:57.039Z,1.52
2022-09-15T07:30:37.000Z,1.10
2022-09-15T07:33:19.198Z,2.72
2022-09-15T07:36:08.985Z,1.60
2022-09-15T07:38:51.279Z,1.42
2022-09-15T07:41:33.014Z,1.40
2022-09-15T07:44:20.981Z,2.70
2022-09-15T07:47:01.003Z,1.13
2022-09-15T07:49:43.346Z,1.27
2022-09-15T07:52:24.037Z,1.30
2022-09-15T07:55:05.082Z,1.60
2022-09-15T07:57:52.106Z,1.50
2022-09-15T08:00:33.143Z,1.70
2022-09-15T08:03:12.988Z,1.42
2022-09-15T08:05:54.084Z,1.20
2022-09-15T08:08:34.987Z,1.63
2022-09-15T08:11:18.986Z,1.40
2022-09-15T08:13:59.005Z,1.50
2022-09-15T08:16:40.094Z,1.33
2022-09-15T08:19:21.026Z,1.75
2022-09-15T08:22:02.072Z,1.45
2022-09-15T08:24:44.036Z,1.15
2022-09-15T08:27:25.203Z,1.20
2022-09-15T08:30:06.008Z,1.70
2022-09-15T08:32:47.120Z,1.58
2022-09-15T08:35:28.021Z,1.40
2022-09-15T08:38:16.043Z,2.50
2022-09-15T08:40:50.056Z,1.55
2022-09-15T08:43:39.994Z,1.58
2022-09-15T08:49:08.118Z,1.48
2022-09-15T08:51:58.087Z,1.17
2022-09-15T08:54:45.010Z,1.40
2022-09-15T08:57:21.080Z,1.05
2022-09-15T09:00:08.999Z,1.30
2022-09-15T09:02:52.134Z,1.13
2022-09-15T09:05:47.010Z,1.20
2022-09-15T09:08:49.002Z,1.17
2022-09-15T09:11:55.997Z,0.77
2022-09-15T09:15:02.023Z,1.20
2022-09-15T09:18:01.088Z,1.20
2022-09-15T09:21:02.000Z,1.45
2022-09-15T09:23:37.121Z,1.33
2022-09-15T09:26:26.030Z,1.15
2022-09-15T09:29:05.084Z,1.55
2022-09-15T09:31:56.016Z,0.90
2022-09-15T09:34:43.015Z,1.13
2022-09-15T09:37:31.031Z,0.82
2022-09-15T09:40:05.278Z,1.83
2022-09-15T09:42:53.030Z,1.45
2022-09-15T09:45:34.026Z,1.70
2022-09-15T09:48:36.013Z,1.30
2022-09-15T09:51:38.044Z,1.00
2022-09-15T09:54:20.716Z,1.27
2022-09-15T09:57:02.037Z,1.60
2022-09-15T09:59:46.164Z,1.05
2022-09-15T10:02:28.043Z,1.20
2022-09-15T10:05:12.292Z,0.98
2022-09-15T10:07:53.030Z,1.50
2022-09-15T10:10:34.080Z,1.58
2022-09-15T10:13:18.027Z,1.38
2022-09-15T10:16:03.088Z,1.20
2022-09-15T10:18:49.879Z,1.30
2022-09-15T10:21:40.032Z,1.98
2022-09-15T10:24:34.243Z,1.25
2022-09-15T10:27:31.022Z,1.75
2022-09-15T10:30:14.642Z,1.23
2022-09-15T10:33:02.035Z,1.92
2022-09-15T10:35:42.322Z,1.58
2022-09-15T10:38:40.039Z,1.20
2022-09-15T10:41:22.808Z,1.30
2022-09-15T10:44:28.025Z,1.40
2022-09-15T10:47:14.624Z,1.80
2022-09-15T10:50:05.045Z,1.55
2022-09-15T10:53:04.033Z,1.58
2022-09-15T10:55:52.950Z,1.10
2022-09-15T10:58:46.120Z,1.25
2022-09-15T11:01:42.090Z,0.98
2022-09-15T11:04:25.024Z,1.48
2022-09-15T11:07:21.018Z,1.10
2022-09-15T11:10:09.427Z,1.63
2022-09-15T11:13:01.101Z,1.00
2022-09-15T11:15:49.059Z,0.90
2022-09-15T11:18:44.106Z,1.25
2022-09-15T11:21:28.039Z,0.90
2022-09-15T11:24:12.098Z,1.40
2022-09-15T11:27:04.054Z,1.30
2022-09-15T11:29:54.127Z,1.30
2022-09-15T11:32:44.027Z,1.23
2022-09-15T11:35:40.161Z,1.08
2022-09-15T11:38:38.049Z,0.88
2022-09-15T11:41:32.064Z,0.90
2022-09-15T11:44:16.199Z,0.80
2022-09-15T11:47:05.068Z,0.80
2022-09-15T11:49:45.818Z,0.93
2022-09-15T11:52:33.048Z,1.10
2022-09-15T11:55:30.053Z,0.60
2022-09-15T12:00:55.974Z,1.05
2022-09-15T12:04:02.052Z,0.80
2022-09-15T12:07:02.061Z,0.90
2022-09-15T12:09:56.045Z,0.75
2022-09-15T12:12:44.047Z,1.08
2022-09-15T12:15:27.629Z,0.77
2022-09-15T12:18:37.760Z,0.80
2022-09-15T12:21:28.209Z,0.73
2022-09-15T12:24:22.084Z,1.08
2022-09-15T12:26:56.129Z,1.00
2022-09-15T12:29:48.059Z,1.23
2022-09-15T12:32:29.347Z,1.00
2022-09-15T12:35:22.059Z,1.00
2022-09-15T12:38:10.065Z,0.88
2022-09-15T12:41:12.039Z,1.13
2022-09-15T12:44:04.035Z,0.80
2022-09-15T12:46:38.232Z,0.60
2022-09-15T12:49:28.086Z,0.90
2022-09-15T12:52:02.202Z,0.82
2022-09-15T12:54:52.066Z,1.00
2022-09-15T12:57:36.149Z,1.02
2022-09-15T13:00:35.079Z,0.93
2022-09-15T13:03:10.232Z,0.90
2022-09-15T13:05:58.246Z,0.80
2022-09-15T13:08:39.130Z,1.10
2022-09-15T13:11:41.160Z,1.13
2022-09-15T13:14:30.153Z,1.50
2022-09-15T13:17:26.062Z,0.88
2022-09-15T13:20:16.072Z,0.82
2022-09-15T13:25:42.164Z,0.85
2022-09-15T13:28:16.779Z,1.20
2022-09-15T13:31:27.105Z,1.13
2022-09-15T13:40:34.506Z,1.13
2022-09-15T13:43:40.794Z,1.08
2022-09-15T13:46:33.880Z,1.05
2022-09-15T13:49:25.060Z,2.40
2022-09-15T13:52:19.344Z,0.80
2022-09-15T13:55:32.064Z,0.70
2022-09-15T14:01:45.170Z,0.98
2022-09-15T14:04:26.086Z,0.80
2022-09-15T14:07:19.963Z,0.82
2022-09-15T14:10:08.096Z,0.90
2022-09-15T14:12:48.085Z,0.93
2022-09-15T14:15:32.133Z,0.75
2022-09-15T14:18:13.082Z,1.00
2022-09-15T14:21:11.094Z,0.90
2022-09-15T14:23:49.142Z,1.00
2022-09-15T14:26:39.065Z,0.98
2022-09-15T14:29:19.708Z,1.20
2022-09-15T14:32:12.157Z,1.00
2022-09-15T14:34:53.078Z,1.45
2022-09-15T14:37:35.146Z,1.30
2022-09-15T14:40:27.164Z,1.08
2022-09-15T14:43:08.210Z,1.20
2022-09-15T14:45:57.263Z,0.80
2022-09-15T14:48:39.124Z,1.00
2022-09-15T14:51:27.073Z,0.93
2022-09-15T14:54:09.137Z,1.50
2022-09-15T14:56:50.104Z,0.93
2022-09-15T14:59:37.149Z,1.52
2022-09-15T15:02:27.151Z,2.03
2022-09-15T15:05:21.157Z,1.77
2022-09-15T15:08:02.088Z,1.50
2022-09-15T15:10:43.261Z,1.48
2022-09-15T15:13:24.091Z,1.30
2022-09-15T15:16:05.222Z,1.25
2022-09-15T15:18:47.103Z,1.00
2022-09-15T15:21:41.111Z,1.70
2022-09-15T15:24:20.677Z,1.73
2022-09-15T15:27:08.095Z,1.10
2022-09-15T15:29:43.202Z,2.10
2022-09-15T15:32:34.075Z,1.42
2022-09-15T15:35:16.213Z,1.10
2022-09-15T15:38:15.096Z,1.23
2022-09-15T15:40:49.036Z,1.23
2022-09-15T15:43:38.083Z,2.08
2022-09-15T15:46:12.057Z,1.63
2022-09-15T15:49:00.163Z,1.63
2022-09-15T15:51:34.070Z,2.40
2022-09-15T15:54:22.123Z,1.20
2022-09-15T15:56:56.739Z,1.42
2022-09-15T15:59:44.113Z,1.75
2022-09-15T16:02:18.102Z,1.63
2022-09-15T16:05:06.103Z,1.55
2022-09-15T16:07:40.646Z,1.30
2022-09-15T16:10:34.108Z,1.70
2022-09-15T16:13:08.390Z,1.20
2022-09-15T16:15:50.150Z,1.70
2022-09-15T16:18:31.093Z,1.33
2022-09-15T16:21:05.035Z,2.05
2022-09-15T16:23:53.158Z,2.28
2022-09-15T16:26:33.121Z,1.35
2022-09-15T16:29:21.105Z,1.00
2022-09-15T16:31:55.257Z,1.65
2022-09-15T16:34:43.108Z,1.85
2022-09-15T16:37:17.168Z,1.02
2022-09-15T16:40:05.238Z,1.52
2022-09-15T16:42:39.053Z,1.23
2022-09-15T16:45:50.113Z,1.60
2022-09-15T16:48:25.342Z,1.55
2022-09-15T16:51:25.219Z,2.03
2022-09-15T16:54:07.278Z,1.60
2022-09-15T16:56:48.675Z,2.83
2022-09-15T16:59:30.287Z,2.38
2022-09-15T17:02:11.351Z,2.65
2022-09-15T17:04:58.153Z,1.42
2022-09-15T17:07:32.258Z,1.45
2022-09-15T17:10:19.117Z,1.42
2022-09-15T17:12:53.416Z,1.73
2022-09-15T17:15:45.186Z,3.00
2022-09-15T17:18:20.568Z,2.92
2022-09-15T17:21:07.140Z,2.50
2022-09-15T17:23:48.188Z,2.28
2022-09-15T17:26:35.167Z,2.13
2022-09-15T17:29:09.177Z,2.70
2022-09-15T17:31:56.209Z,1.92
2022-09-15T17:34:30.248Z,3.05
2022-09-15T17:37:18.305Z,2.90
2022-09-15T17:39:58.703Z,1.73
2022-09-15T17:42:50.270Z,2.55
2022-09-15T17:45:31.135Z,1.70
2022-09-15T17:48:25.216Z,1.92
2022-09-15T17:51:14.207Z,2.03
2022-09-15T17:53:48.290Z,1.53
2022-09-15T17:56:36.242Z,2.05
2022-09-15T17:59:14.323Z,1.70
2022-09-15T18:01:57.318Z,1.88
2022-09-15T18:04:31.272Z,2.03
2022-09-15T18:07:22.225Z,1.90
2022-09-15T18:09:56.357Z,1.90
2022-09-15T18:12:47.339Z,2.22
2022-09-15T18:15:34.406Z,2.03
2022-09-15T18:18:19.914Z,2.00
2022-09-15T18:21:02.324Z,2.05
2022-09-15T18:23:45.230Z,1.60
2022-09-15T18:26:26.703Z,1.90
2022-09-15T18:29:08.333Z,2.42
2022-09-15T18:31:48.275Z,2.65
2022-09-15T18:34:29.393Z,2.05
2022-09-15T18:37:09.393Z,2.13
2022-09-15T18:39:50.279Z,1.67
2022-09-15T18:42:31.993Z,2.15
2022-09-15T18:45:21.136Z,1.65
2022-09-15T18:47:55.107Z,1.67
2022-09-15T18:50:43.297Z,1.70
2022-09-15T18:53:17.156Z,1.90
2022-09-15T18:56:05.285Z,3.05
2022-09-15T18:58:39.243Z,2.38
2022-09-15T19:01:27.182Z,1.85
2022-09-15T19:04:02.789Z,2.28
2022-09-15T19:06:50.339Z,1.73
2022-09-15T19:09:24.147Z,1.50
2022-09-15T19:12:12.340Z,2.28
2022-09-15T19:14:52.152Z,1.77
2022-09-15T19:17:33.210Z,1.90
2022-09-15T19:20:15.125Z,3.13
2022-09-15T19:23:03.149Z,1.92
2022-09-15T19:25:44.146Z,2.00
2022-09-15T19:28:32.195Z,2.00
2022-09-15T19:31:27.270Z,2.17
2022-09-15T19:34:14.156Z,1.48
2022-09-15T19:36:55.190Z,1.40
2022-09-15T19:39:50.212Z,1.67
2022-09-15T19:42:45.132Z,2.35
2022-09-15T19:45:32.153Z,2.47
2022-09-15T19:48:06.193Z,3.25
2022-09-15T19:50:54.155Z,2.25
2022-09-15T19:53:28.201Z,2.15
2022-09-15T19:56:20.155Z,2.50
2022-09-15T19:58:55.927Z,1.45
2022-09-15T20:01:43.180Z,2.50
2022-09-15T20:04:20.098Z,2.30
2022-09-15T20:07:25.697Z,2.20
2022-09-15T20:10:00.829Z,1.60
2022-09-15T20:12:49.675Z,1.85
2022-09-15T20:15:24.832Z,1.17
2022-09-15T20:18:12.673Z,1.80
2022-09-15T20:20:47.711Z,1.67
2022-09-15T20:23:34.740Z,1.80
2022-09-15T20:26:21.689Z,1.42
2022-09-15T20:29:17.697Z,0.95
2022-09-15T20:32:05.197Z,1.55
2022-09-15T20:34:39.711Z,1.40
2022-09-15T20:37:32.074Z,1.45
2022-09-15T20:40:10.868Z,1.67
2022-09-15T20:42:58.569Z,1.58
2022-09-15T20:45:37.009Z,1.45
2022-09-15T20:48:18.695Z,1.30
2022-09-15T20:51:07.738Z,1.30
2022-09-15T20:53:49.710Z,1.80
2022-09-15T20:56:38.622Z,1.35
2022-09-15T20:59:13.529Z,1.85
2022-09-15T21:02:00.783Z,1.35
2022-09-15T21:04:41.345Z,1.48
2022-09-15T21:07:21.725Z,1.85
2022-09-15T21:10:02.335Z,1.80
2022-09-15T21:12:42.204Z,1.50
2022-09-15T21:15:23.278Z,1.80
2022-09-15T21:18:03.211Z,1.83
2022-09-15T21:20:44.258Z,1.58
2022-09-15T21:23:25.171Z,2.10
2022-09-15T21:26:12.303Z,1.45
2022-09-15T21:28:53.196Z,1.30
2022-09-15T21:31:35.263Z,1.30
2022-09-15T21:34:15.192Z,1.50
2022-09-15T21:36:57.973Z,1.35
2022-09-15T21:39:38.208Z,1.73
2022-09-15T21:42:19.326Z,2.10
2022-09-15T21:44:59.162Z,1.38
2022-09-15T21:47:47.205Z,1.80
2022-09-15T21:50:21.110Z,1.80
2022-09-15T21:53:09.189Z,1.55
2022-09-15T21:55:43.133Z,1.52
2022-09-15T21:58:43.067Z,1.45
2022-09-15T22:01:32.216Z,1.30
2022-09-15T22:04:20.175Z,1.65
2022-09-15T22:06:54.152Z,1.75
2022-09-15T22:09:42.200Z,1.17
2022-09-15T22:12:16.232Z,1.58
2022-09-15T22:15:04.213Z,2.15
2022-09-15T22:17:38.104Z,1.40
2022-09-15T22:20:26.198Z,1.63
2022-09-15T22:23:03.247Z,2.13
2022-09-15T22:25:51.217Z,1.90
2022-09-15T22:28:31.225Z,1.80
2022-09-15T22:31:13.317Z,1.85
2022-09-15T22:33:54.202Z,1.60
2022-09-15T22:36:36.291Z,1.90
2022-09-15T22:39:19.219Z,1.67
2022-09-15T22:42:00.275Z,1.75
2022-09-15T22:44:40.203Z,1.88
2022-09-15T22:47:22.256Z,1.52
2022-09-15T22:50:03.205Z,1.40
2022-09-15T22:52:44.478Z,1.92
2022-09-15T22:55:25.191Z,1.60
2022-09-15T22:58:06.280Z,1.77
2022-09-15T23:00:47.274Z,1.45
2022-09-15T23:03:28.471Z,0.85
2022-09-15T23:06:09.191Z,1.67
2022-09-15T23:08:50.310Z,1.63
2022-09-15T23:11:31.190Z,1.52
2022-09-15T23:14:20.182Z,1.58
2022-09-15T23:16:54.222Z,1.48
2022-09-15T23:19:42.277Z,1.23
2022-09-15T23:22:16.120Z,1.50
2022-09-15T23:25:04.209Z,1.40
2022-09-15T23:27:38.155Z,1.67
2022-09-15T23:30:26.209Z,1.33
2022-09-15T23:33:13.189Z,1.85
2022-09-15T23:35:54.191Z,1.52
2022-09-15T23:38:52.169Z,1.70
2022-09-15T23:41:33.200Z,1.55
2022-09-15T23:44:14.217Z,1.70
2022-09-15T23:46:48.301Z,1.88
2022-09-15T23:49:35.195Z,1.23
2022-09-15T23:52:16.199Z,1.02
2022-09-15T23:55:10.175Z,1.52
2022-09-15T23:57:57.191Z,1.50
